Time;durP1;ratioP1;P1;durP2;ratioP2;P2;SDS_P1;SDS_P2;PMS_P1;PMS_P2;Temp;Humidity;BMP_temperature;BMP_pressure;BME280_temperature;BME280_humidity;BME280_pressure;Samples;Min_cycle;Max_cycle;Signal;HPM_P1;HPM_P2
2021/12/23 00:02:13;;;;;;;;;;;;;;;0.74;57.12;100372.47;4994738;28;19914;-75
2021/12/23 00:04:39;;;;;;;;;;;;;;;0.76;58.01;100357.25;4994500;28;19960;-74
2021/12/23 00:07:04;;;;;;;;;;;;;;;0.84;57.33;100345.94;4994720;28;19913;-75
2021/12/23 00:09:58;;;;;;;;;;;;;;;0.66;57.72;100328.13;4994226;28;19914;-76
2021/12/23 00:12:15;;;;;;;;;;;;;;;0.58;57.78;100309.44;4993936;28;19914;-75
2021/12/23 00:14:40;;;;;;;;;;;;;;;0.47;58.16;100316.72;4994707;28;20276;-75
2021/12/23 00:17:19;;;;;;;;;;;;;;;0.44;58.23;100314.34;4993216;28;20004;-76
2021/12/23 00:19:59;;;;;;;;;;;;;;;0.38;58.33;100315.75;4994283;28;19914;-76
2021/12/23 00:25:22;;;;;;;;;;;;;;;0.27;59.95;100323.88;4961189;28;20391;-74
2021/12/23 00:27:47;;;;;;;;;;;;;;;0.20;60.00;100318.28;4994427;28;20011;-75
2021/12/23 00:30:13;;;;;;;;;;;;;;;0.32;58.95;100318.97;4993000;28;20284;-75
2021/12/23 00:32:38;;;;;;;;;;;;;;;0.35;59.30;100313.41;4994709;28;20017;-75
2021/12/23 00:35:09;;;;;;;;;;;;;;;0.48;58.50;100313.09;4994483;28;20280;-76
2021/12/23 00:37:41;;;;;;;;;;;;;;;0.61;58.72;100308.31;4994270;28;20016;-75
2021/12/23 00:40:09;;;;;;;;;;;;;;;0.55;57.83;100300.91;4994489;28;19940;-77
2021/12/23 00:42:34;;;;;;;;;;;;;;;0.52;58.54;100278.22;4994111;28;19914;-76
2021/12/23 00:45:00;;;;;;;;;;;;;;;0.48;58.11;100271.50;4994077;28;19913;-75
2021/12/23 00:47:25;;;;;;;;;;;;;;;0.47;58.32;100266.34;4993830;28;19944;-75
2021/12/23 00:49:50;;;;;;;;;;;;;;;0.43;58.25;100262.31;4993822;28;19914;-75
2021/12/23 00:52:22;;;;;;;;;;;;;;;0.38;58.02;100261.91;4993793;28;19918;-74
2021/12/23 00:54:47;;;;;;;;;;;;;;;0.32;58.10;100269.47;4994050;28;19917;-74
2021/12/23 00:57:13;;;;;;;;;;;;;;;0.40;59.00;100246.69;4992751;28;19920;-75
2021/12/23 00:59:38;;;;;;;;;;;;;;;0.35;59.12;100228.59;4994294;28;20327;-74
2021/12/23 01:02:07;;;;;;;;;;;;;;;0.44;58.37;100221.56;4998323;28;20323;-75
2021/12/23 01:04:32;;;;;;;;;;;;;;;0.48;58.62;100230.91;4997954;28;19917;-75
2021/12/23 01:06:58;;;;;;;;;;;;;;;0.48;59.32;100245.00;4997946;28;20359;-75
2021/12/23 01:09:23;;;;;;;;;;;;;;;0.57;58.23;100225.56;4997613;28;19928;-74
2021/12/23 01:11:50;;;;;;;;;;;;;;;0.58;58.29;100215.78;4997961;28;20434;-76
2021/12/23 01:19:24;;;;;;;;;;;;;;;0.52;59.41;100211.09;4997577;28;19920;-76
2021/12/23 01:21:50;;;;;;;;;;;;;;;0.53;59.46;100205.66;4976680;28;19922;-73
2021/12/23 01:24:15;;;;;;;;;;;;;;;0.53;59.49;100194.22;4978067;28;20250;-75
2021/12/23 01:26:41;;;;;;;;;;;;;;;0.55;59.27;100193.06;4977621;28;19914;-75
2021/12/23 01:29:06;;;;;;;;;;;;;;;0.56;59.65;100215.94;4978130;28;19925;-77
2021/12/23 01:31:33;;;;;;;;;;;;;;;0.61;59.87;100197.78;4977997;28;19952;-75
2021/12/23 01:33:59;;;;;;;;;;;;;;;0.59;59.99;100177.69;4978025;28;20399;-76
2021/12/23 01:36:24;;;;;;;;;;;;;;;0.59;60.09;100167.94;4976629;28;19942;-74
2021/12/23 01:38:50;;;;;;;;;;;;;;;0.49;60.70;100172.47;4977527;28;20364;-75
2021/12/23 01:41:16;;;;;;;;;;;;;;;0.54;60.22;100179.94;4977443;28;19961;-75
2021/12/23 01:43:41;;;;;;;;;;;;;;;0.47;60.72;100158.50;4977488;28;20280;-75
2021/12/23 01:46:07;;;;;;;;;;;;;;;0.62;60.46;100150.91;4977423;28;20333;-76
2021/12/23 01:48:33;;;;;;;;;;;;;;;0.59;60.73;100143.25;4977349;28;19921;-77
2021/12/23 01:50:58;;;;;;;;;;;;;;;0.61;60.64;100141.28;4977891;28;19914;-76
2021/12/23 01:53:23;;;;;;;;;;;;;;;0.60;60.67;100142.25;4977289;28;19914;-74
2021/12/23 01:55:48;;;;;;;;;;;;;;;0.62;60.54;100166.81;4992504;28;19953;-75
2021/12/23 01:58:14;;;;;;;;;;;;;;;0.49;61.36;100175.09;4977217;28;19961;-75
2021/12/23 02:00:43;;;;;;;;;;;;;;;0.47;61.78;100165.63;4977817;28;20425;-75
2021/12/23 02:03:08;;;;;;;;;;;;;;;0.53;61.63;100154.44;4977503;28;19914;-76
2021/12/23 02:05:34;;;;;;;;;;;;;;;0.72;60.73;100141.06;4977118;28;19914;-75
2021/12/23 02:08:00;;;;;;;;;;;;;;;0.74;60.83;100155.00;4977600;28;19961;-75
2021/12/23 02:10:26;;;;;;;;;;;;;;;0.55;61.20;100163.91;4976845;28;20016;-76
2021/12/23 02:12:51;;;;;;;;;;;;;;;0.51;60.72;100157.25;4976979;28;20061;-76
2021/12/23 02:15:17;;;;;;;;;;;;;;;0.74;60.21;100152.34;4976954;28;20376;-77
2021/12/23 02:17:43;;;;;;;;;;;;;;;0.65;60.72;100145.31;4992027;28;19921;-75
2021/12/23 02:20:13;;;;;;;;;;;;;;;0.68;60.53;100145.00;4980033;28;20004;-75
2021/12/23 02:22:39;;;;;;;;;;;;;;;0.60;60.95;100153.69;4979002;28;19918;-76
2021/12/23 02:25:06;;;;;;;;;;;;;;;0.62;61.07;100141.13;4995101;28;20357;-75
2021/12/23 02:27:31;;;;;;;;;;;;;;;0.54;61.62;100143.66;4996650;28;19914;-75
2021/12/23 02:29:56;;;;;;;;;;;;;;;0.48;61.76;100143.44;4996321;28;19940;-75
2021/12/23 02:32:22;;;;;;;;;;;;;;;0.64;61.44;100138.34;4996050;28;19914;-75
2021/12/23 02:34:47;;;;;;;;;;;;;;;0.65;61.58;100127.59;4996265;28;19952;-75
2021/12/23 02:37:13;;;;;;;;;;;;;;;0.69;61.43;100122.81;4996244;28;19968;-75
2021/12/23 02:39:39;;;;;;;;;;;;;;;0.69;61.76;100125.47;4996142;28;19917;-76
2021/12/23 02:42:05;;;;;;;;;;;;;;;0.76;61.86;100118.56;4995888;28;19914;-75
2021/12/23 02:44:30;;;;;;;;;;;;;;;0.82;61.55;100117.16;4996513;28;20434;-75
2021/12/23 02:46:55;;;;;;;;;;;;;;;0.80;62.00;100112.00;4995886;28;20411;-75
2021/12/23 02:49:21;;;;;;;;;;;;;;;0.83;62.01;100108.22;4996034;28;19921;-75
2021/12/23 02:51:46;;;;;;;;;;;;;;;0.98;61.04;100093.44;4995823;28;20375;-76
2021/12/23 02:54:11;;;;;;;;;;;;;;;0.96;61.92;100085.63;4995575;28;19913;-75
2021/12/23 02:56:36;;;;;;;;;;;;;;;1.02;61.53;100093.00;4995781;28;19922;-77
2021/12/23 02:59:02;;;;;;;;;;;;;;;1.08;61.47;100104.78;4995607;28;20379;-75
2021/12/23 03:01:27;;;;;;;;;;;;;;;0.94;62.13;100106.16;4995448;28;19914;-75
2021/12/23 03:03:52;;;;;;;;;;;;;;;1.00;62.28;100110.03;4995681;28;19914;-75
2021/12/23 03:06:19;;;;;;;;;;;;;;;0.84;62.63;100117.84;4995658;28;20279;-74
2021/12/23 03:08:46;;;;;;;;;;;;;;;0.81;63.10;100113.66;4995647;28;19913;-75
2021/12/23 03:11:13;;;;;;;;;;;;;;;0.76;62.75;100105.31;4995492;28;19914;-75
2021/12/23 03:13:39;;;;;;;;;;;;;;;0.77;63.19;100098.19;4995590;28;19914;-75
2021/12/23 03:16:05;;;;;;;;;;;;;;;0.94;63.37;100107.97;4995483;28;20316;-75
2021/12/23 03:18:30;;;;;;;;;;;;;;;0.87;62.52;100107.75;4995489;28;19920;-75
2021/12/23 03:20:56;;;;;;;;;;;;;;;0.89;63.12;100105.81;4995099;28;19940;-75
2021/12/23 03:23:21;;;;;;;;;;;;;;;0.92;63.62;100102.00;4994628;28;20430;-74
2021/12/23 03:25:46;;;;;;;;;;;;;;;0.88;64.17;100109.44;4994871;28;20233;-74
2021/12/23 03:28:12;;;;;;;;;;;;;;;0.88;64.57;100111.25;4994951;28;20349;-75
2021/12/23 03:30:37;;;;;;;;;;;;;;;0.89;65.18;100105.81;4995193;28;19914;-75
2021/12/23 03:33:03;;;;;;;;;;;;;;;0.95;64.76;100080.47;4995108;28;19913;-75
2021/12/23 03:35:28;;;;;;;;;;;;;;;0.96;65.59;100087.44;4994969;28;19921;-77
2021/12/23 03:37:54;;;;;;;;;;;;;;;0.80;65.91;100090.78;4994998;28;19924;-74
2021/12/23 03:40:20;;;;;;;;;;;;;;;0.76;66.39;100092.06;4995332;28;19913;-74
2021/12/23 03:42:45;;;;;;;;;;;;;;;0.62;67.06;100101.34;4994837;28;20265;-74
2021/12/23 03:45:11;;;;;;;;;;;;;;;0.62;67.30;100084.63;4994710;28;19920;-74
2021/12/23 03:47:36;;;;;;;;;;;;;;;0.76;66.45;100068.19;4994939;28;20455;-75
2021/12/23 03:50:03;;;;;;;;;;;;;;;0.84;66.86;100067.44;4994808;28;20290;-73
2021/12/23 03:52:28;;;;;;;;;;;;;;;0.68;67.42;100071.59;4995140;28;20000;-75
2021/12/23 03:54:53;;;;;;;;;;;;;;;0.58;67.41;100073.47;4994619;28;20013;-76
2021/12/23 03:57:18;;;;;;;;;;;;;;;0.62;67.52;100076.66;4994586;28;19917;-74
2021/12/23 03:59:43;;;;;;;;;;;;;;;0.84;67.15;100091.31;4994366;28;19914;-74
2021/12/23 04:02:09;;;;;;;;;;;;;;;0.76;67.42;100077.97;4994736;28;20396;-75
2021/12/23 04:04:34;;;;;;;;;;;;;;;0.61;67.81;100080.28;4995002;28;19929;-74
2021/12/23 04:06:59;;;;;;;;;;;;;;;0.57;68.03;100089.53;4994889;28;19914;-74
2021/12/23 04:09:25;;;;;;;;;;;;;;;0.65;67.76;100082.50;4994782;28;19920;-75
2021/12/23 04:11:50;;;;;;;;;;;;;;;0.59;67.95;100083.09;4994733;28;19917;-74
2021/12/23 04:14:15;;;;;;;;;;;;;;;0.58;67.89;100080.59;4994288;28;19921;-74
2021/12/23 04:16:40;;;;;;;;;;;;;;;0.63;67.66;100070.38;4994587;28;20279;-74
2021/12/23 04:19:08;;;;;;;;;;;;;;;0.54;68.36;100060.66;4994294;28;19921;-75
2021/12/23 04:21:34;;;;;;;;;;;;;;;0.45;68.40;100051.78;4994480;28;20257;-76
2021/12/23 04:23:59;;;;;;;;;;;;;;;0.59;67.61;100045.16;4994590;28;19914;-75
2021/12/23 04:26:25;;;;;;;;;;;;;;;0.55;68.06;100049.06;4976825;28;19914;-75
2021/12/23 04:28:51;;;;;;;;;;;;;;;0.61;67.53;100037.88;4994356;28;19921;-75
2021/12/23 04:31:17;;;;;;;;;;;;;;;0.54;67.64;100029.69;4994416;28;19984;-74
2021/12/23 04:33:43;;;;;;;;;;;;;;;0.55;67.73;100025.22;4993848;28;20391;-75
2021/12/23 04:36:09;;;;;;;;;;;;;;;0.32;68.21;100022.19;4994294;28;19913;-73
2021/12/23 04:38:35;;;;;;;;;;;;;;;0.25;69.05;100015.78;4994543;28;19914;-75
2021/12/23 04:41:00;;;;;;;;;;;;;;;0.14;69.00;100016.00;4994553;28;19963;-75
2021/12/23 04:43:25;;;;;;;;;;;;;;;0.12;69.34;100010.84;4994196;28;19914;-74
2021/12/23 04:45:50;;;;;;;;;;;;;;;0.18;68.67;100004.16;4994105;28;19921;-75
2021/12/23 04:48:16;;;;;;;;;;;;;;;0.21;68.57;100020.53;4993914;28;20364;-78
2021/12/23 04:50:41;;;;;;;;;;;;;;;0.03;69.49;100017.03;4993899;28;19945;-74
2021/12/23 04:53:06;;;;;;;;;;;;;;;-0.08;70.09;100004.81;4993836;28;19924;-74
2021/12/23 04:55:32;;;;;;;;;;;;;;;-0.09;70.02;100018.22;4993823;28;19920;-74
2021/12/23 04:57:57;;;;;;;;;;;;;;;-0.03;70.26;100007.03;4994169;28;19914;-75
2021/12/23 05:00:22;;;;;;;;;;;;;;;-0.11;70.31;99994.53;4994043;28;20380;-75
2021/12/23 05:02:47;;;;;;;;;;;;;;;-0.06;70.12;99997.56;4994209;28;19914;-77
2021/12/23 05:05:14;;;;;;;;;;;;;;;-0.11;70.41;99986.56;4976457;28;20365;-74
2021/12/23 05:07:39;;;;;;;;;;;;;;;-0.13;70.52;99979.75;4993756;28;19941;-75
2021/12/23 05:10:05;;;;;;;;;;;;;;;-0.10;70.26;99966.22;4994131;28;19917;-74
2021/12/23 05:12:31;;;;;;;;;;;;;;;-0.11;70.50;99959.25;4993847;28;19914;-74
2021/12/23 05:14:56;;;;;;;;;;;;;;;-0.07;69.90;99955.34;4993917;28;19987;-75
2021/12/23 05:17:21;;;;;;;;;;;;;;;-0.03;70.36;99931.06;4993926;28;19964;-77
2021/12/23 05:19:46;;;;;;;;;;;;;;;-0.04;70.53;99939.16;4993423;28;20364;-78
2021/12/23 05:22:13;;;;;;;;;;;;;;;0.08;69.88;99945.91;4993792;28;20025;-76
2021/12/23 05:24:38;;;;;;;;;;;;;;;-0.03;70.04;99949.59;4993590;28;20385;-76
2021/12/23 05:27:03;;;;;;;;;;;;;;;-0.08;70.09;99946.56;4993720;28;20313;-77
2021/12/23 05:29:28;;;;;;;;;;;;;;;-0.11;70.17;99936.25;4993437;28;20327;-77
2021/12/23 05:31:54;;;;;;;;;;;;;;;-0.03;70.56;99928.41;4993996;28;19917;-77
2021/12/23 05:34:19;;;;;;;;;;;;;;;-0.06;70.37;99926.06;4993084;28;19914;-76
2021/12/23 05:36:44;;;;;;;;;;;;;;;-0.06;70.19;99917.28;4993540;28;19958;-75
2021/12/23 05:39:09;;;;;;;;;;;;;;;-0.03;70.50;99917.81;4993344;28;19921;-76
2021/12/23 05:41:35;;;;;;;;;;;;;;;-0.04;70.37;99915.31;4993568;28;20416;-76
2021/12/23 05:44:00;;;;;;;;;;;;;;;0.16;69.31;99903.63;4992403;28;20317;-76
2021/12/23 05:46:25;;;;;;;;;;;;;;;0.16;69.18;99911.56;4995163;28;20264;-75
2021/12/23 05:48:51;;;;;;;;;;;;;;;0.13;69.33;99918.97;4996771;28;20372;-76
2021/12/23 05:51:16;;;;;;;;;;;;;;;0.12;69.50;99907.53;4997048;28;20367;-74
2021/12/23 05:53:41;;;;;;;;;;;;;;;0.12;69.02;99909.34;4996870;28;20428;-75
2021/12/23 05:56:06;;;;;;;;;;;;;;;0.20;68.58;99902.31;4996612;28;20040;-75
2021/12/23 05:58:32;;;;;;;;;;;;;;;0.12;69.00;99912.84;4996832;28;20032;-75
2021/12/23 06:00:57;;;;;;;;;;;;;;;0.10;68.98;99924.56;4996362;28;19917;-75
2021/12/23 06:03:22;;;;;;;;;;;;;;;0.09;69.28;99922.91;4996739;28;19914;-75
2021/12/23 06:05:47;;;;;;;;;;;;;;;0.13;69.02;99919.81;4996694;28;19920;-78
2021/12/23 06:08:13;;;;;;;;;;;;;;;0.10;68.96;99920.09;4997105;28;19917;-74
2021/12/23 06:10:38;;;;;;;;;;;;;;;0.07;69.16;99908.97;4996637;28;19914;-75
2021/12/23 06:13:03;;;;;;;;;;;;;;;0.00;69.93;99901.59;4996255;28;20012;-76
2021/12/23 06:15:28;;;;;;;;;;;;;;;0.17;68.90;99893.84;4996926;28;20005;-75
2021/12/23 06:17:54;;;;;;;;;;;;;;;0.15;69.47;99899.31;4996769;28;19921;-75
2021/12/23 06:20:19;;;;;;;;;;;;;;;0.27;68.65;99900.72;4996007;28;20334;-77
2021/12/23 06:22:44;;;;;;;;;;;;;;;0.19;68.76;99902.47;4996213;28;19944;-75
2021/12/23 06:25:11;;;;;;;;;;;;;;;0.14;69.10;99899.44;4996101;28;20432;-75
2021/12/23 06:27:37;;;;;;;;;;;;;;;0.19;69.06;99905.94;4996197;28;20012;-76
2021/12/23 06:30:04;;;;;;;;;;;;;;;0.23;69.21;99912.59;4996101;28;20012;-75
2021/12/23 06:32:29;;;;;;;;;;;;;;;0.19;69.23;99907.75;4995974;28;19913;-76
2021/12/23 06:34:54;;;;;;;;;;;;;;;0.23;68.75;99891.41;4995945;28;19913;-76
2021/12/23 06:37:20;;;;;;;;;;;;;;;0.31;68.38;99898.63;4995703;28;20356;-76
2021/12/23 06:39:46;;;;;;;;;;;;;;;0.29;68.22;99896.13;4995661;28;20292;-78
2021/12/23 06:42:12;;;;;;;;;;;;;;;0.47;70.80;99884.66;4995663;28;19914;-77
2021/12/23 06:44:37;;;;;;;;;;;;;;;0.39;69.11;99887.25;4995625;28;19918;-76
2021/12/23 06:47:02;;;;;;;;;;;;;;;0.48;68.64;99891.63;4995684;28;19920;-76
2021/12/23 06:49:31;;;;;;;;;;;;;;;0.40;68.61;99888.91;4995731;28;19971;-74
2021/12/23 06:51:56;;;;;;;;;;;;;;;0.39;69.06;99881.94;4996036;28;20341;-76
2021/12/23 06:54:21;;;;;;;;;;;;;;;0.34;68.45;99893.84;4996011;28;19928;-76
2021/12/23 06:56:47;;;;;;;;;;;;;;;0.52;68.87;99885.03;4978321;28;19967;-76
2021/12/23 06:59:15;;;;;;;;;;;;;;;0.40;69.02;99881.78;4995659;28;19921;-75
2021/12/23 07:01:40;;;;;;;;;;;;;;;0.62;68.58;99880.47;4995811;28;20379;-74
2021/12/23 07:04:15;;;;;;;;;;;;;;;0.54;68.51;99881.22;4995420;28;19913;-76
2021/12/23 07:06:47;;;;;;;;;;;;;;;0.48;68.22;99873.09;4995728;28;20064;-76
2021/12/23 07:09:13;;;;;;;;;;;;;;;0.49;68.20;99874.75;4995716;28;19921;-74
2021/12/23 07:11:38;;;;;;;;;;;;;;;0.38;68.23;99877.63;4995386;28;19914;-75
2021/12/23 07:14:03;;;;;;;;;;;;;;;0.40;67.65;99876.47;4995246;28;20327;-75
2021/12/23 07:16:29;;;;;;;;;;;;;;;0.43;68.63;99876.19;4995472;28;19932;-74
2021/12/23 07:18:54;;;;;;;;;;;;;;;0.42;68.38;99873.69;4995683;28;20352;-75
2021/12/23 07:21:19;;;;;;;;;;;;;;;0.44;67.54;99861.94;4995130;28;19917;-76
2021/12/23 07:23:45;;;;;;;;;;;;;;;0.44;68.53;99855.81;4995286;28;20265;-76
2021/12/23 07:26:10;;;;;;;;;;;;;;;0.39;67.84;99858.09;4994884;28;19940;-75
2021/12/23 07:28:35;;;;;;;;;;;;;;;0.43;67.87;99859.44;4995288;28;19961;-75
2021/12/23 07:31:00;;;;;;;;;;;;;;;0.36;67.72;99847.81;4994128;28;20288;-76
2021/12/23 07:33:26;;;;;;;;;;;;;;;0.43;67.53;99860.28;4995077;28;20499;-76
2021/12/23 07:35:51;;;;;;;;;;;;;;;0.48;67.23;99870.44;4994796;28;19961;-76
2021/12/23 07:38:16;;;;;;;;;;;;;;;0.58;67.25;99873.81;4994753;28;20288;-75
2021/12/23 07:40:42;;;;;;;;;;;;;;;0.58;67.27;99877.28;4994689;28;20003;-76
2021/12/23 07:43:31;;;;;;;;;;;;;;;0.59;66.84;99881.59;4994597;28;19922;-75
2021/12/23 07:45:56;;;;;;;;;;;;;;;0.60;66.96;99898.34;4994224;28;19914;-76
2021/12/23 07:48:21;;;;;;;;;;;;;;;0.81;66.61;99882.09;4994758;28;19913;-76
2021/12/23 07:50:46;;;;;;;;;;;;;;;0.63;66.65;99879.50;4994442;28;19926;-76
2021/12/23 07:53:11;;;;;;;;;;;;;;;0.65;67.49;99885.47;4994512;28;20255;-75
2021/12/23 07:55:39;;;;;;;;;;;;;;;0.56;67.51;99873.97;4994856;28;19917;-75
2021/12/23 07:58:04;;;;;;;;;;;;;;;0.53;67.30;99865.50;4994812;28;19960;-75
2021/12/23 08:00:29;;;;;;;;;;;;;;;0.47;67.71;99866.94;4994867;28;19918;-75
2021/12/23 08:02:55;;;;;;;;;;;;;;;0.49;67.78;99869.44;4994369;28;19983;-76
2021/12/23 08:05:20;;;;;;;;;;;;;;;0.53;66.77;99876.94;4994321;28;19913;-76
2021/12/23 08:07:45;;;;;;;;;;;;;;;0.44;67.00;99858.47;4994696;28;19918;-75
2021/12/23 08:10:11;;;;;;;;;;;;;;;0.43;67.25;99859.44;4994175;28;19917;-75
2021/12/23 08:12:36;;;;;;;;;;;;;;;0.51;66.74;99868.31;4994648;28;19918;-75
2021/12/23 08:15:02;;;;;;;;;;;;;;;0.55;66.57;99856.38;4994559;28;19920;-75
2021/12/23 08:17:27;;;;;;;;;;;;;;;0.51;66.44;99857.72;4994943;28;20362;-75
2021/12/23 08:19:53;;;;;;;;;;;;;;;0.55;66.91;99860.84;4994115;28;19914;-74
2021/12/23 08:22:18;;;;;;;;;;;;;;;0.57;66.67;99875.63;4994531;28;19914;-78
2021/12/23 08:24:43;;;;;;;;;;;;;;;0.74;65.86;99865.97;4994931;28;19917;-75
2021/12/23 08:27:09;;;;;;;;;;;;;;;0.72;65.69;99872.44;4996687;28;19913;-75
2021/12/23 08:29:34;;;;;;;;;;;;;;;0.78;65.33;99866.50;4994333;28;19914;-75
2021/12/23 08:31:59;;;;;;;;;;;;;;;0.82;65.68;99868.69;4993641;28;20423;-75
2021/12/23 08:34:25;;;;;;;;;;;;;;;0.78;65.62;99871.81;4994856;28;19913;-75
2021/12/23 08:36:51;;;;;;;;;;;;;;;0.74;65.83;99873.09;4995841;28;19920;-76
2021/12/23 08:39:16;;;;;;;;;;;;;;;0.77;65.22;99870.97;4996453;28;19925;-75
2021/12/23 08:41:42;;;;;;;;;;;;;;;0.86;65.48;99869.22;4995267;28;20383;-75
2021/12/23 08:44:07;;;;;;;;;;;;;;;0.95;64.60;99866.44;4994615;28;20012;-75
2021/12/23 08:46:32;;;;;;;;;;;;;;;0.93;65.14;99862.28;4994934;28;20272;-76
2021/12/23 08:48:57;;;;;;;;;;;;;;;0.93;64.80;99871.06;4993812;28;19913;-75
2021/12/23 08:51:23;;;;;;;;;;;;;;;0.94;65.10;99878.03;4994169;28;19914;-76
2021/12/23 08:53:48;;;;;;;;;;;;;;;1.01;65.11;99870.28;4994415;28;19913;-77
2021/12/23 08:56:13;;;;;;;;;;;;;;;0.96;65.49;99869.94;4993847;28;19918;-75
2021/12/23 08:58:40;;;;;;;;;;;;;;;1.01;65.25;99863.16;4993967;28;19914;-75
2021/12/23 09:01:05;;;;;;;;;;;;;;;1.01;65.29;99863.16;4993955;28;19921;-75
2021/12/23 09:03:32;;;;;;;;;;;;;;;1.07;65.25;99859.06;4994469;28;19914;-75
2021/12/23 09:05:58;;;;;;;;;;;;;;;1.06;65.39;99846.78;4993818;28;20419;-76
2021/12/23 09:08:25;;;;;;;;;;;;;;;1.07;64.72;99852.94;4976472;28;19914;-75
2021/12/23 09:10:51;;;;;;;;;;;;;;;1.13;64.93;99852.28;4994207;28;20341;-75
2021/12/23 09:13:16;;;;;;;;;;;;;;;1.19;64.59;99862.25;4993478;28;19952;-76
2021/12/23 09:15:41;;;;;;;;;;;;;;;1.21;64.66;99855.81;4993996;28;19997;-77
2021/12/23 09:18:07;;;;;;;;;;;;;;;1.22;64.20;99856.66;4994114;28;20003;-76
2021/12/23 09:20:32;;;;;;;;;;;;;;;1.25;63.69;99857.16;4976621;28;20271;-76
2021/12/23 09:22:57;;;;;;;;;;;;;;;1.26;64.03;99845.53;4997500;28;20303;-76
2021/12/23 09:25:24;;;;;;;;;;;;;;;1.29;64.54;99852.34;4997440;28;20345;-76
2021/12/23 09:28:04;;;;;;;;;;;;;;;1.36;63.74;99848.91;4979704;28;19941;-76
2021/12/23 09:33:15;;;;;;;;;;;;;;;1.44;62.79;99818.88;4997087;28;20020;-76
2021/12/23 09:35:41;;;;;;;;;;;;;;;1.46;62.56;99816.91;4997803;28;20384;-76
2021/12/23 09:38:06;;;;;;;;;;;;;;;1.49;62.84;99813.94;4996109;28;20395;-77
2021/12/23 09:40:33;;;;;;;;;;;;;;;1.54;62.96;99805.50;4997461;28;19924;-75
2021/12/23 09:43:02;;;;;;;;;;;;;;;1.53;62.38;99804.66;4997555;28;19917;-76
2021/12/23 09:45:28;;;;;;;;;;;;;;;1.58;62.23;99807.66;4997245;28;19964;-77
2021/12/23 09:47:56;;;;;;;;;;;;;;;1.58;61.96;99799.72;4997296;28;19941;-76
2021/12/23 09:50:22;;;;;;;;;;;;;;;1.64;62.21;99795.53;4996955;28;19914;-76
2021/12/23 09:52:50;;;;;;;;;;;;;;;1.67;62.41;99787.25;4979499;28;19913;-78
2021/12/23 09:55:17;;;;;;;;;;;;;;;1.74;61.19;99788.28;4996992;28;19921;-77
2021/12/23 09:57:43;;;;;;;;;;;;;;;1.76;61.50;99774.84;4996530;28;20398;-77
2021/12/23 10:00:11;;;;;;;;;;;;;;;1.80;61.91;99774.31;4996761;28;19967;-76
2021/12/23 10:02:40;;;;;;;;;;;;;;;1.87;61.43;99775.34;4996649;28;19989;-77
2021/12/23 10:05:05;;;;;;;;;;;;;;;1.95;60.99;99779.84;4996796;28;20324;-77
2021/12/23 10:07:31;;;;;;;;;;;;;;;2.02;60.58;99767.53;4996950;28;19964;-76
2021/12/23 10:37:14;;;;;;;;;;;;;;;2.58;59.09;99725.94;4996402;28;19913;-76
2021/12/23 10:39:42;;;;;;;;;;;;;;;2.72;58.77;99711.91;4978812;28;20364;-76
2021/12/23 10:42:11;;;;;;;;;;;;;;;2.75;58.96;99709.75;4994941;28;19917;-76
2021/12/23 10:44:37;;;;;;;;;;;;;;;2.79;58.92;99694.28;4996012;28;20012;-76
2021/12/23 10:47:03;;;;;;;;;;;;;;;2.82;58.67;99693.94;4996073;28;19937;-77
2021/12/23 10:49:47;;;;;;;;;;;;;;;2.88;59.05;99687.91;4996088;28;20356;-76
2021/12/23 10:52:18;;;;;;;;;;;;;;;2.95;58.77;99688.06;4995669;28;19913;-77
2021/12/23 11:00:22;;;;;;;;;;;;;;;3.07;58.36;99684.81;4995646;28;19921;-77
2021/12/23 11:03:07;;;;;;;;;;;;;;;3.04;58.58;99682.53;4995692;28;20296;-76
2021/12/23 11:05:38;;;;;;;;;;;;;;;3.05;58.78;99676.16;4995631;28;19913;-76
2021/12/23 11:08:21;;;;;;;;;;;;;;;3.11;58.74;99672.00;4996146;28;19914;-76
2021/12/23 11:35:48;;;;;;;;;;;;;;;3.49;57.24;99624.97;4994980;28;19925;-76
2021/12/23 11:38:29;;;;;;;;;;;;;;;3.53;57.29;99628.13;4995193;28;19959;-77
2021/12/23 11:40:58;;;;;;;;;;;;;;;3.52;57.04;99629.94;4995112;28;19914;-76
2021/12/23 11:43:45;;;;;;;;;;;;;;;3.54;57.22;99621.78;4994230;28;19980;-79
2021/12/23 11:46:11;;;;;;;;;;;;;;;3.60;57.18;99619.22;4995320;28;19918;-77
2021/12/23 11:48:41;;;;;;;;;;;;;;;3.61;57.11;99612.03;4995928;28;19913;-77
2021/12/23 11:51:09;;;;;;;;;;;;;;;3.59;57.29;99609.56;4995334;28;20008;-77
2021/12/23 11:53:36;;;;;;;;;;;;;;;3.62;57.62;99601.22;4993700;28;20372;-78
2021/12/23 11:56:03;;;;;;;;;;;;;;;3.61;57.54;99588.06;4995135;28;20023;-77
2021/12/23 11:58:28;;;;;;;;;;;;;;;3.60;57.87;99592.56;4995062;28;20319;-76
2021/12/23 12:01:01;;;;;;;;;;;;;;;3.62;57.88;99587.91;4993771;28;19964;-79
2021/12/23 12:03:26;;;;;;;;;;;;;;;3.60;58.40;99581.09;4977175;28;19964;-76
2021/12/23 12:05:51;;;;;;;;;;;;;;;3.64;58.55;99585.06;4994696;28;20312;-76
2021/12/23 12:08:23;;;;;;;;;;;;;;;3.69;58.87;99583.50;4977167;28;19918;-77
2021/12/23 12:10:48;;;;;;;;;;;;;;;3.72;59.05;99591.16;4993293;28;19957;-75
2021/12/23 12:13:15;;;;;;;;;;;;;;;3.77;59.31;99574.59;4994847;28;20353;-76
2021/12/23 12:15:41;;;;;;;;;;;;;;;3.79;59.22;99570.75;4994465;28;19913;-77
2021/12/23 12:18:14;;;;;;;;;;;;;;;3.86;59.97;99570.03;4993662;28;19918;-77
2021/12/23 12:20:46;;;;;;;;;;;;;;;3.92;60.19;99563.97;4994719;28;19922;-76
2021/12/23 12:23:32;;;;;;;;;;;;;;;4.02;60.20;99564.50;4994017;28;19914;-77
2021/12/23 12:25:59;;;;;;;;;;;;;;;4.04;60.12;99551.84;4995596;28;20443;-76
2021/12/23 12:28:24;;;;;;;;;;;;;;;4.08;59.05;99553.97;5000357;28;19914;-76
2021/12/23 12:30:57;;;;;;;;;;;;;;;3.96;59.03;99547.41;5000534;28;19920;-77
2021/12/23 12:33:25;;;;;;;;;;;;;;;3.89;59.41;99545.69;4996187;28;20060;-77
2021/12/23 12:35:50;;;;;;;;;;;;;;;3.83;59.55;99525.91;4995906;28;20364;-77
2021/12/23 12:38:21;;;;;;;;;;;;;;;3.82;59.44;99522.41;4994760;28;19921;-77
2021/12/23 12:41:05;;;;;;;;;;;;;;;3.86;59.59;99524.72;4994997;28;19914;-77
2021/12/23 12:43:35;;;;;;;;;;;;;;;3.89;59.80;99519.84;4994601;28;19971;-78
2021/12/23 12:46:01;;;;;;;;;;;;;;;3.90;59.87;99528.69;4995338;28;19936;-77
2021/12/23 12:48:46;;;;;;;;;;;;;;;3.97;59.68;99519.75;4995043;28;20349;-77
2021/12/23 12:51:22;;;;;;;;;;;;;;;4.02;60.03;99521.88;4964708;28;19992;-78
2021/12/23 12:53:56;;;;;;;;;;;;;;;3.96;59.86;99515.44;4995412;28;19921;-78
2021/12/23 12:56:31;;;;;;;;;;;;;;;3.97;59.51;99506.41;4997995;28;19913;-78
2021/12/23 12:58:56;;;;;;;;;;;;;;;3.92;59.94;99495.50;4999370;28;19914;-77
2021/12/23 13:01:41;;;;;;;;;;;;;;;3.89;59.95;99493.22;4980945;28;19960;-77
2021/12/23 13:04:18;;;;;;;;;;;;;;;3.87;60.02;99495.22;4998455;28;19914;-78
2021/12/23 13:06:43;;;;;;;;;;;;;;;3.90;60.07;99484.19;4999284;28;19913;-78
2021/12/23 13:09:11;;;;;;;;;;;;;;;3.93;60.26;99477.69;4998039;28;20028;-78
2021/12/23 13:11:41;;;;;;;;;;;;;;;3.94;60.50;99472.13;4998108;28;20424;-79
2021/12/23 13:14:12;;;;;;;;;;;;;;;4.02;60.44;99447.22;4980851;28;20376;-78
2021/12/23 13:16:49;;;;;;;;;;;;;;;3.97;60.66;99457.63;4997240;28;19968;-78
2021/12/23 13:19:18;;;;;;;;;;;;;;;4.15;60.93;99445.53;4999043;28;20001;-78
2021/12/23 13:21:45;;;;;;;;;;;;;;;4.15;60.62;99447.38;4998807;28;19924;-78
2021/12/23 13:24:11;;;;;;;;;;;;;;;4.22;60.65;99439.47;4998474;28;19921;-77
2021/12/23 13:26:37;;;;;;;;;;;;;;;4.18;60.97;99437.19;4998460;28;19960;-78
2021/12/23 13:29:04;;;;;;;;;;;;;;;4.12;61.28;99427.25;4998197;28;19914;-77
2021/12/23 13:31:33;;;;;;;;;;;;;;;4.12;61.56;99415.78;4998451;28;19913;-78
2021/12/23 13:34:00;;;;;;;;;;;;;;;4.19;61.64;99411.34;4981789;28;20249;-77
2021/12/23 13:36:25;;;;;;;;;;;;;;;4.20;62.00;99421.00;4997354;28;19964;-78
2021/12/23 13:38:52;;;;;;;;;;;;;;;4.27;62.64;99408.56;4998503;28;19960;-77
2021/12/23 13:41:27;;;;;;;;;;;;;;;4.20;62.34;99394.31;4997691;28;20335;-78
2021/12/23 13:43:53;;;;;;;;;;;;;;;4.17;63.30;99406.19;4998092;28;20004;-77
2021/12/23 13:46:19;;;;;;;;;;;;;;;4.26;63.22;99406.91;4997843;28;19937;-78
2021/12/23 13:49:07;;;;;;;;;;;;;;;4.24;63.30;99403.59;4998057;28;19914;-78
2021/12/23 13:51:37;;;;;;;;;;;;;;;4.31;63.17;99395.66;4990498;28;19952;-79
2021/12/23 13:54:07;;;;;;;;;;;;;;;4.26;63.72;99398.91;4980076;28;19914;-77
2021/12/23 13:56:34;;;;;;;;;;;;;;;4.24;64.44;99392.94;4997704;28;20272;-77
2021/12/23 13:59:13;;;;;;;;;;;;;;;4.28;64.15;99388.06;4997844;28;19920;-76
2021/12/23 14:02:04;;;;;;;;;;;;;;;4.31;64.97;99382.31;4997789;28;19953;-77